Darnestown, Maryland
Current Conditions -  °F | °C
As of 7:55 AM on Monday 22 Dec 2014 (Local Time) from KGAI Reporting Station
Overcast Overcast  
Wind Chill: -2°   Ceiling: 4100
Heat Index: -2°   Visibility: 8mi
Dew Point: -6°   Wind: 3mph
Humidity: 74%   Direction: 30°NNE
Pressure: 30.31"   Gusts: NA
Location:  39.1148°N, 77.252°W
Report Text: KGAI 221255Z 03003KT 8SM OVC041 M02/M06 A3031 RMK AO1
Loading
Personal Weather Stations






























Interactive Weather Map New forecast layout! Learn more

10-Day Weather Forecast

Advertisements
Track Severe Weather on mobile